createdAt,value
2019-01-27T00:02:26.094Z,28.93
2019-01-27T00:04:58.974Z,32.33
2019-01-27T00:07:31.788Z,29.73
2019-01-27T00:10:01.428Z,26.77
2019-01-27T00:12:31.282Z,27.17
2019-01-27T00:15:01.052Z,27.20
2019-01-27T00:17:30.826Z,31.17
2019-01-27T00:20:00.416Z,30.13
2019-01-27T00:22:31.632Z,29.63
2019-01-27T00:25:01.746Z,25.30
2019-01-27T00:27:31.630Z,25.90
2019-01-27T00:30:03.630Z,25.50
2019-01-27T00:32:35.974Z,26.43
2019-01-27T00:35:08.116Z,26.37
2019-01-27T00:37:38.062Z,26.10
2019-01-27T00:40:13.974Z,25.60
2019-01-27T00:42:46.833Z,26.67
2019-01-27T00:45:19.623Z,29.10
2019-01-27T00:47:51.203Z,27.70
2019-01-27T00:50:23.214Z,23.67
2019-01-27T00:52:53.067Z,27.67
2019-01-27T00:55:30.163Z,25.90
2019-01-27T00:58:00.994Z,25.97
2019-01-27T01:00:36.021Z,24.67
2019-01-27T01:03:10.714Z,25.63
2019-01-27T01:05:46.435Z,27.57
2019-01-27T01:08:19.655Z,28.23
2019-01-27T01:10:49.499Z,29.07
2019-01-27T01:13:23.071Z,28.40
2019-01-27T01:15:53.266Z,26.60
2019-01-27T01:18:25.614Z,28.83
2019-01-27T01:20:58.435Z,25.97
2019-01-27T01:23:34.570Z,25.83
2019-01-27T01:26:14.342Z,26.77
2019-01-27T01:28:49.496Z,25.17
2019-01-27T01:31:21.767Z,26.63
2019-01-27T01:33:51.491Z,27.90
2019-01-27T01:36:21.651Z,24.43
2019-01-27T01:38:51.378Z,22.57
2019-01-27T01:41:25.447Z,24.93
2019-01-27T01:44:00.752Z,19.97
2019-01-27T01:46:35.533Z,21.77
2019-01-27T01:49:06.725Z,19.20
2019-01-27T01:51:36.607Z,21.77
2019-01-27T01:54:06.173Z,21.67
2019-01-27T01:56:37.691Z,18.83
2019-01-27T01:59:07.229Z,15.43
2019-01-27T02:01:36.810Z,18.20
2019-01-27T02:04:06.406Z,16.03
2019-01-27T02:06:36.277Z,17.57
2019-01-27T02:09:13.002Z,18.20
2019-01-27T02:11:42.648Z,15.27
2019-01-27T02:14:12.231Z,19.00
2019-01-27T02:16:41.828Z,19.80
2019-01-27T02:19:11.774Z,15.03
2019-01-27T02:21:41.462Z,15.10
2019-01-27T02:24:11.041Z,12.97
2019-01-27T02:26:40.700Z,14.83
2019-01-27T02:29:10.325Z,14.70
2019-01-27T02:31:40.723Z,14.60
2019-01-27T02:34:10.410Z,13.73
2019-01-27T02:36:40.027Z,14.50
2019-01-27T02:39:10.495Z,14.30
2019-01-27T02:41:40.176Z,14.93
2019-01-27T02:44:09.718Z,12.80
2019-01-27T02:46:39.657Z,13.67
2019-01-27T02:49:09.202Z,14.17
2019-01-27T02:51:38.750Z,17.33
2019-01-27T02:54:08.423Z,16.00
2019-01-27T02:56:38.045Z,15.20
2019-01-27T02:59:07.959Z,16.70
2019-01-27T03:01:37.537Z,15.63
2019-01-27T03:04:08.158Z,16.03
2019-01-27T03:06:50.394Z,16.40
2019-01-27T03:09:26.792Z,18.47
2019-01-27T03:11:56.316Z,16.57
2019-01-27T03:14:25.794Z,18.77
2019-01-27T03:16:55.318Z,17.43
2019-01-27T03:19:25.928Z,19.67
2019-01-27T03:21:55.449Z,18.63
2019-01-27T03:24:25.044Z,17.30
2019-01-27T03:26:54.581Z,17.03
2019-01-27T03:29:24.149Z,18.17
2019-01-27T03:31:53.707Z,16.20
2019-01-27T03:34:23.500Z,15.07
2019-01-27T03:36:53.093Z,17.63
2019-01-27T03:39:22.662Z,18.70
2019-01-27T03:41:52.213Z,17.93
2019-01-27T03:44:21.812Z,22.07
2019-01-27T03:46:51.425Z,20.80
2019-01-27T03:49:20.998Z,15.23
2019-01-27T03:51:50.568Z,16.23
2019-01-27T03:54:20.149Z,13.27
2019-01-27T03:56:49.677Z,13.43
2019-01-27T03:59:19.202Z,12.37
2019-01-27T04:01:48.747Z,13.80
2019-01-27T04:04:18.265Z,14.00
2019-01-27T04:06:47.751Z,16.43
2019-01-27T04:09:17.290Z,13.07
2019-01-27T04:11:46.798Z,11.27
2019-01-27T04:14:16.385Z,11.23
2019-01-27T04:16:45.989Z,13.07
2019-01-27T04:19:15.494Z,12.43
2019-01-27T04:21:44.996Z,12.97
2019-01-27T04:24:14.562Z,12.40
2019-01-27T04:26:44.071Z,9.20
2019-01-27T04:29:13.566Z,10.47
2019-01-27T04:31:43.122Z,9.17
2019-01-27T04:34:12.670Z,10.37
2019-01-27T04:36:42.162Z,9.33
2019-01-27T04:39:11.685Z,8.40
2019-01-27T04:41:41.156Z,9.63
2019-01-27T04:44:10.697Z,9.73
2019-01-27T04:46:40.298Z,7.50
2019-01-27T04:49:09.776Z,7.00
2019-01-27T04:51:39.257Z,10.07
2019-01-27T04:54:08.845Z,9.37
2019-01-27T04:56:38.435Z,8.97
2019-01-27T04:59:07.974Z,7.87
2019-01-27T05:01:37.573Z,7.17
2019-01-27T05:04:31.702Z,8.83
2019-01-27T05:07:01.418Z,8.73
2019-01-27T05:09:30.983Z,9.53
2019-01-27T05:12:00.547Z,8.87
2019-01-27T05:14:30.111Z,9.60
2019-01-27T05:16:59.704Z,8.40
2019-01-27T05:19:29.211Z,9.53
2019-01-27T05:21:58.741Z,9.70
2019-01-27T05:24:28.249Z,7.97
2019-01-27T05:26:57.754Z,8.00
2019-01-27T05:29:27.298Z,7.43
2019-01-27T05:31:56.804Z,7.27
2019-01-27T05:34:26.440Z,6.90
2019-01-27T05:36:56.059Z,8.13
2019-01-27T05:39:25.529Z,6.83
2019-01-27T05:41:55.041Z,8.50
2019-01-27T05:44:24.654Z,7.43
2019-01-27T05:46:54.195Z,6.43
2019-01-27T05:49:23.732Z,5.90
2019-01-27T05:51:53.262Z,9.00
2019-01-27T05:54:22.819Z,7.20
2019-01-27T05:56:56.655Z,6.33
2019-01-27T05:59:23.571Z,8.10
2019-01-27T06:01:53.038Z,6.17
2019-01-27T06:04:22.598Z,7.07
2019-01-27T06:06:52.180Z,7.07
2019-01-27T06:09:21.695Z,8.50
2019-01-27T06:11:51.193Z,7.37
2019-01-27T06:14:20.731Z,9.07
2019-01-27T06:16:50.221Z,7.97
2019-01-27T06:19:19.746Z,6.77
2019-01-27T06:21:49.270Z,9.27
2019-01-27T06:24:25.053Z,9.63
2019-01-27T06:26:58.090Z,7.87
2019-01-27T06:30:12.162Z,12.50
2019-01-27T06:33:12.560Z,9.63
2019-01-27T06:35:45.363Z,14.37
2019-01-27T06:38:14.879Z,10.27
2019-01-27T06:40:44.534Z,12.67
2019-01-27T06:43:15.849Z,9.83
2019-01-27T06:45:45.405Z,8.23
2019-01-27T06:48:15.193Z,9.23
2019-01-27T06:50:44.826Z,7.30
2019-01-27T06:53:16.975Z,7.33
2019-01-27T06:55:46.552Z,7.10
2019-01-27T06:58:16.175Z,11.13
2019-01-27T07:01:01.798Z,11.07
2019-01-27T07:03:50.213Z,7.80
2019-01-27T07:06:27.077Z,7.47
2019-01-27T07:09:08.342Z,7.33
2019-01-27T07:11:52.249Z,8.80
2019-01-27T07:14:39.348Z,9.60
2019-01-27T07:17:29.200Z,9.03
2019-01-27T07:20:21.862Z,8.37
2019-01-27T07:23:13.550Z,8.47
2019-01-27T07:26:03.745Z,8.77
2019-01-27T07:28:48.675Z,10.50
2019-01-27T07:31:38.448Z,17.37
2019-01-27T07:34:36.165Z,48.60
2019-01-27T07:37:31.370Z,14.30
2019-01-27T07:40:29.037Z,12.23
2019-01-27T07:43:29.517Z,49.47
2019-01-27T07:46:07.899Z,9.67
2019-01-27T07:48:55.467Z,8.27
2019-01-27T07:51:47.003Z,9.93
2019-01-27T07:54:40.378Z,23.10
2019-01-27T07:57:30.009Z,9.83
2019-01-27T08:00:15.493Z,9.13
2019-01-27T08:03:22.330Z,9.97
2019-01-27T08:05:57.601Z,29.83
2019-01-27T08:08:42.818Z,12.73
2019-01-27T08:11:22.833Z,11.00
2019-01-27T08:14:12.737Z,10.60
2019-01-27T08:17:04.919Z,11.33
2019-01-27T08:19:53.389Z,9.90
2019-01-27T08:22:59.702Z,9.83
2019-01-27T08:25:44.144Z,9.33
2019-01-27T08:28:30.295Z,9.60
2019-01-27T08:31:17.568Z,10.40
2019-01-27T08:34:06.076Z,12.40
2019-01-27T08:36:54.605Z,11.97
2019-01-27T08:39:46.135Z,12.13
2019-01-27T08:42:31.778Z,12.10
2019-01-27T08:45:32.617Z,21.50
2019-01-27T08:48:02.229Z,13.83
2019-01-27T08:51:02.173Z,14.50
2019-01-27T08:53:05.593Z,13.87
2019-01-27T08:55:34.768Z,14.63
2019-01-27T08:58:04.658Z,17.27
2019-01-27T09:00:38.485Z,15.47
2019-01-27T09:03:24.068Z,14.07
2019-01-27T09:06:01.803Z,11.13
2019-01-27T09:08:54.665Z,12.23
2019-01-27T09:11:49.448Z,10.77
2019-01-27T09:14:31.690Z,9.80
2019-01-27T09:17:20.341Z,12.93
2019-01-27T09:20:08.830Z,13.37
2019-01-27T09:22:57.352Z,15.47
2019-01-27T09:25:34.331Z,25.40
2019-01-27T09:28:21.586Z,11.20
2019-01-27T09:31:25.928Z,10.83
2019-01-27T09:34:13.234Z,11.33
2019-01-27T09:36:49.563Z,13.07
2019-01-27T09:39:40.994Z,14.50
2019-01-27T09:42:25.984Z,12.63
2019-01-27T09:45:14.549Z,12.23
2019-01-27T09:48:00.972Z,12.00
2019-01-27T09:50:52.175Z,24.67
2019-01-27T09:53:32.929Z,16.00
2019-01-27T09:56:19.944Z,12.27
2019-01-27T09:59:11.250Z,9.97
2019-01-27T10:01:58.443Z,11.33
2019-01-27T10:04:38.882Z,9.60
2019-01-27T10:07:26.068Z,10.97
2019-01-27T10:10:34.381Z,10.10
2019-01-27T10:13:11.934Z,13.80
2019-01-27T10:16:07.574Z,13.27
2019-01-27T10:19:14.313Z,13.27
2019-01-27T10:22:01.469Z,10.97
2019-01-27T10:25:08.258Z,9.50
2019-01-27T10:28:08.366Z,8.73
2019-01-27T10:31:05.472Z,8.83
2019-01-27T10:33:51.250Z,9.10
2019-01-27T10:36:42.779Z,9.60
2019-01-27T10:39:32.817Z,9.20
2019-01-27T10:42:16.997Z,7.53
2019-01-27T10:45:04.176Z,9.20
2019-01-27T10:47:57.374Z,10.00
2019-01-27T10:50:46.019Z,6.63
2019-01-27T10:53:37.230Z,8.43
2019-01-27T10:56:22.242Z,10.37
2019-01-27T10:59:26.047Z,7.07
2019-01-27T11:02:25.751Z,9.43
2019-01-27T11:05:14.878Z,10.87
2019-01-27T11:07:51.651Z,10.90
2019-01-27T11:10:32.271Z,10.17
2019-01-27T11:13:09.525Z,11.73
2019-01-27T11:16:05.519Z,11.47
2019-01-27T11:18:48.190Z,12.43
2019-01-27T11:21:33.243Z,13.10
2019-01-27T11:24:21.737Z,11.50
2019-01-27T11:27:16.025Z,11.17
2019-01-27T11:30:07.127Z,11.27
2019-01-27T11:33:02.595Z,10.20
2019-01-27T11:35:55.706Z,10.83
2019-01-27T11:38:42.716Z,11.37
2019-01-27T11:41:34.054Z,12.77
2019-01-27T11:44:12.627Z,9.90
2019-01-27T11:46:57.819Z,10.10
2019-01-27T11:49:46.089Z,8.77
2019-01-27T11:52:20.486Z,9.40
2019-01-27T11:54:50.112Z,8.80
2019-01-27T11:57:19.737Z,12.23
2019-01-27T12:00:03.658Z,9.47
2019-01-27T12:02:36.314Z,11.40
2019-01-27T12:05:08.004Z,11.63
2019-01-27T12:07:41.672Z,10.50
2019-01-27T12:10:14.836Z,9.83
2019-01-27T12:12:46.235Z,10.10
2019-01-27T12:15:21.087Z,10.60
2019-01-27T12:17:59.547Z,9.17
2019-01-27T12:20:32.352Z,8.10
2019-01-27T12:23:04.116Z,8.13
2019-01-27T12:25:35.599Z,8.83
2019-01-27T12:28:05.272Z,10.83
2019-01-27T12:30:35.189Z,10.40
2019-01-27T12:33:08.179Z,10.00
2019-01-27T12:35:42.551Z,8.53
2019-01-27T12:38:13.922Z,10.03
2019-01-27T12:40:44.804Z,10.50
2019-01-27T12:43:31.364Z,11.57
2019-01-27T12:46:01.092Z,10.07
2019-01-27T12:48:30.835Z,12.10
2019-01-27T12:51:04.909Z,10.40
2019-01-27T12:53:37.604Z,11.40
2019-01-27T12:56:07.486Z,10.37
2019-01-27T12:58:37.314Z,10.50
2019-01-27T13:01:11.626Z,8.93
2019-01-27T13:03:44.419Z,9.20
2019-01-27T13:06:13.946Z,8.57
2019-01-27T13:08:44.602Z,9.87
2019-01-27T13:11:16.346Z,10.70
2019-01-27T13:13:45.905Z,8.73
2019-01-27T13:16:18.294Z,10.00
2019-01-27T13:18:47.968Z,16.20
2019-01-27T13:21:17.475Z,8.77
2019-01-27T13:23:46.989Z,9.87
2019-01-27T13:26:16.524Z,9.17
2019-01-27T13:28:46.111Z,8.87
2019-01-27T13:31:15.614Z,7.90
2019-01-27T13:33:46.950Z,8.13
2019-01-27T13:36:16.496Z,7.27
2019-01-27T13:38:51.038Z,9.93
2019-01-27T13:41:17.204Z,7.50
2019-01-27T13:43:50.067Z,6.60
2019-01-27T13:46:19.661Z,7.90
2019-01-27T13:48:49.279Z,7.97
2019-01-27T13:51:18.778Z,8.03
2019-01-27T13:53:48.367Z,8.37
2019-01-27T13:56:19.086Z,10.40
2019-01-27T13:58:55.756Z,8.20
2019-01-27T14:01:25.449Z,8.40
2019-01-27T14:03:58.374Z,7.40
2019-01-27T14:06:34.471Z,10.40
2019-01-27T14:09:01.233Z,8.60
2019-01-27T14:11:30.839Z,8.27
2019-01-27T14:14:00.395Z,9.43
2019-01-27T14:16:35.915Z,13.23
2019-01-27T14:19:21.233Z,20.60
2019-01-27T14:21:52.126Z,9.43
2019-01-27T14:24:21.706Z,8.40
2019-01-27T14:26:51.284Z,9.10
2019-01-27T14:29:20.786Z,9.80
2019-01-27T14:31:50.275Z,8.10
2019-01-27T14:34:19.850Z,9.77
2019-01-27T14:36:49.401Z,18.27
2019-01-27T14:39:19.010Z,13.50
2019-01-27T14:41:48.571Z,10.73
2019-01-27T14:44:18.151Z,12.20
2019-01-27T14:46:47.770Z,11.30
2019-01-27T14:49:17.319Z,11.73
2019-01-27T14:51:46.893Z,8.40
2019-01-27T14:54:16.445Z,10.60
2019-01-27T14:56:46.067Z,10.47
2019-01-27T14:59:15.648Z,10.83
2019-01-27T15:01:45.274Z,15.90
2019-01-27T15:04:14.834Z,13.63
2019-01-27T15:06:44.474Z,19.17
2019-01-27T15:09:14.130Z,18.43
2019-01-27T15:11:43.710Z,15.33
2019-01-27T15:14:13.356Z,14.30
2019-01-27T15:16:42.896Z,11.93
2019-01-27T15:19:12.435Z,12.80
2019-01-27T15:21:42.096Z,10.77
2019-01-27T15:24:11.719Z,29.97
2019-01-27T15:26:41.301Z,31.87
2019-01-27T15:29:10.838Z,12.83
2019-01-27T15:31:40.362Z,11.77
2019-01-27T15:34:09.939Z,13.73
2019-01-27T15:36:39.478Z,15.53
2019-01-27T15:39:10.790Z,15.37
2019-01-27T15:41:40.703Z,18.10
2019-01-27T15:44:10.242Z,8.47
2019-01-27T15:46:39.751Z,17.23
2019-01-27T15:49:09.255Z,13.60
2019-01-27T15:51:38.889Z,17.17
2019-01-27T15:54:11.234Z,16.33
2019-01-27T15:56:40.738Z,16.17
2019-01-27T15:59:36.545Z,17.83
2019-01-27T16:02:42.639Z,19.67
2019-01-27T16:06:12.067Z,19.77
2019-01-27T16:09:01.800Z,20.47
2019-01-27T16:11:39.883Z,21.87
2019-01-27T16:14:09.631Z,23.10
2019-01-27T16:16:39.234Z,24.77
2019-01-27T16:19:08.914Z,27.23
2019-01-27T16:21:38.522Z,25.37
2019-01-27T16:24:18.320Z,33.77
2019-01-27T16:26:47.948Z,29.83
2019-01-27T16:29:19.178Z,23.37
2019-01-27T16:32:03.181Z,25.67
2019-01-27T16:34:42.846Z,22.80
2019-01-27T16:37:12.469Z,21.87
2019-01-27T16:39:41.993Z,24.47
2019-01-27T16:42:11.591Z,21.93
2019-01-27T16:44:41.254Z,23.27
2019-01-27T16:47:10.842Z,22.83
2019-01-27T16:49:40.494Z,22.83
2019-01-27T16:52:10.129Z,23.17
2019-01-27T16:54:39.762Z,24.40
2019-01-27T16:57:09.278Z,25.07
2019-01-27T16:59:38.945Z,25.33
2019-01-27T17:02:08.941Z,26.40
2019-01-27T17:04:38.592Z,22.27
2019-01-27T17:07:08.261Z,25.10
2019-01-27T17:09:37.810Z,22.70
2019-01-27T17:12:07.357Z,24.30
2019-01-27T17:14:37.020Z,28.67
2019-01-27T17:17:06.595Z,25.87
2019-01-27T17:19:36.353Z,24.03
2019-01-27T17:22:06.498Z,28.40
2019-01-27T17:24:36.042Z,23.97
2019-01-27T17:27:05.737Z,26.67
2019-01-27T17:29:35.317Z,23.27
2019-01-27T17:32:05.373Z,26.90
2019-01-27T17:34:35.031Z,24.60
2019-01-27T17:38:04.729Z,25.67
2019-01-27T17:40:59.070Z,42.37
2019-01-27T17:43:52.802Z,23.80
2019-01-27T17:46:42.747Z,22.03
2019-01-27T17:49:22.983Z,22.30
2019-01-27T17:52:19.479Z,22.47
2019-01-27T17:55:14.653Z,21.17
2019-01-27T17:58:00.567Z,22.20
2019-01-27T18:01:02.109Z,23.23
2019-01-27T18:03:52.298Z,24.63
2019-01-27T18:06:50.870Z,22.90
2019-01-27T18:09:54.538Z,23.50
2019-01-27T18:12:36.581Z,22.53
2019-01-27T18:15:44.678Z,23.13
2019-01-27T18:18:38.156Z,22.47
2019-01-27T18:21:22.068Z,26.93
2019-01-27T18:23:51.389Z,24.87
2019-01-27T18:26:21.091Z,26.13
2019-01-27T18:28:51.921Z,26.47
2019-01-27T18:31:21.749Z,101.53
2019-01-27T18:33:51.502Z,28.17
2019-01-27T18:36:21.341Z,27.10
2019-01-27T18:38:56.705Z,24.17
2019-01-27T18:41:26.503Z,23.33
2019-01-27T18:44:01.511Z,23.47
2019-01-27T18:46:31.484Z,24.47
2019-01-27T18:49:01.467Z,23.60
2019-01-27T18:51:32.504Z,29.37
2019-01-27T18:54:24.627Z,26.50
2019-01-27T18:57:33.005Z,28.63
2019-01-27T19:00:24.967Z,28.80
2019-01-27T19:03:17.874Z,28.63
2019-01-27T19:06:29.058Z,24.87
2019-01-27T19:09:15.014Z,25.77
2019-01-27T19:12:05.719Z,26.87
2019-01-27T19:15:03.712Z,23.60
2019-01-27T19:17:55.235Z,24.07
2019-01-27T19:20:41.567Z,25.63
2019-01-27T19:23:47.142Z,29.83
2019-01-27T19:27:20.669Z,27.00
2019-01-27T19:30:02.571Z,26.70
2019-01-27T19:32:50.806Z,26.40
2019-01-27T19:35:30.548Z,26.43
2019-01-27T19:38:10.812Z,24.57
2019-01-27T19:41:01.762Z,25.27
2019-01-27T19:43:47.614Z,24.47
2019-01-27T19:46:39.391Z,24.43
2019-01-27T19:49:26.407Z,25.30
2019-01-27T19:52:15.101Z,25.03
2019-01-27T19:55:16.103Z,24.00
2019-01-27T19:58:04.890Z,22.03
2019-01-27T20:04:28.425Z,24.73
2019-01-27T20:07:46.729Z,22.40
2019-01-27T20:07:56.744Z,26.27
2019-01-27T20:10:49.720Z,24.23
2019-01-27T20:13:38.788Z,24.27
2019-01-27T20:16:16.867Z,24.83
2019-01-27T20:19:12.207Z,26.93
2019-01-27T20:21:53.549Z,23.90
2019-01-27T20:24:56.091Z,22.87
2019-01-27T20:27:41.467Z,25.20
2019-01-27T20:30:37.628Z,24.67
2019-01-27T20:33:30.382Z,26.13
2019-01-27T20:43:32.964Z,30.10
2019-01-27T20:47:27.621Z,37.83
2019-01-27T20:50:05.766Z,25.37
2019-01-27T20:53:03.568Z,24.47
2019-01-27T21:00:11.416Z,28.90
2019-01-27T21:03:00.151Z,26.67
2019-01-27T21:18:18.200Z,28.93
2019-01-27T21:19:27.245Z,28.47
2019-01-27T21:22:18.742Z,30.03
2019-01-27T21:25:20.486Z,30.67
2019-01-27T21:27:54.890Z,30.63
2019-01-27T21:30:24.635Z,26.93
2019-01-27T21:32:58.830Z,32.50
2019-01-27T21:35:26.030Z,31.30
2019-01-27T21:38:05.632Z,32.77
2019-01-27T21:40:37.537Z,29.17
2019-01-27T21:43:07.339Z,28.57
2019-01-27T21:45:37.151Z,28.83
2019-01-27T21:48:33.261Z,33.27
2019-01-27T21:51:03.328Z,32.07
2019-01-27T21:53:33.647Z,31.90
2019-01-27T21:56:03.393Z,33.23
2019-01-27T21:58:33.081Z,34.77
2019-01-27T22:01:02.926Z,28.80
2019-01-27T22:03:32.647Z,30.23
2019-01-27T22:06:07.643Z,33.53
2019-01-27T22:08:37.563Z,31.00
2019-01-27T22:11:07.523Z,32.70
2019-01-27T22:13:37.340Z,31.07
2019-01-27T22:16:07.085Z,31.03
2019-01-27T22:18:37.028Z,30.93
2019-01-27T22:21:15.108Z,30.90
2019-01-27T22:23:45.886Z,33.60
2019-01-27T22:26:15.662Z,29.27
2019-01-27T22:28:45.439Z,33.73
2019-01-27T22:31:15.168Z,32.63
2019-01-27T22:33:45.042Z,33.20
2019-01-27T22:36:14.841Z,31.37
2019-01-27T22:38:44.529Z,30.60
2019-01-27T22:41:15.327Z,32.67
2019-01-27T22:43:45.024Z,31.83
2019-01-27T22:46:15.705Z,31.03
2019-01-27T22:48:45.500Z,31.47
2019-01-27T22:51:15.453Z,29.93
2019-01-27T22:53:45.166Z,32.03
2019-01-27T22:56:14.874Z,29.57
2019-01-27T22:58:44.703Z,32.60
2019-01-27T23:01:19.555Z,34.50
2019-01-27T23:03:53.973Z,35.73
2019-01-27T23:06:23.730Z,54.03
2019-01-27T23:08:55.936Z,37.70
2019-01-27T23:11:26.817Z,37.13
2019-01-27T23:13:59.569Z,48.50
2019-01-27T23:16:32.279Z,55.47
2019-01-27T23:19:02.170Z,67.90
2019-01-27T23:21:31.862Z,57.53
2019-01-27T23:24:01.595Z,51.13
2019-01-27T23:26:31.355Z,44.90
2019-01-27T23:29:01.289Z,45.03
2019-01-27T23:31:30.969Z,40.23
2019-01-27T23:34:00.836Z,39.47
2019-01-27T23:36:30.623Z,34.53
2019-01-27T23:39:00.284Z,41.83
2019-01-27T23:41:31.298Z,37.90
2019-01-27T23:44:01.059Z,34.20
2019-01-27T23:46:30.793Z,31.37
2019-01-27T23:49:02.162Z,34.47
2019-01-27T23:51:31.981Z,35.43
2019-01-27T23:54:01.749Z,33.50
2019-01-27T23:56:31.384Z,34.47
2019-01-27T23:59:01.068Z,35.30
